Time;durP1;ratioP1;P1;durP2;ratioP2;P2;SDS_P1;SDS_P2;PMS_P1;PMS_P2;Temp;Humidity;BMP_temperature;BMP_pressure;BME280_temperature;BME280_humidity;BME280_pressure;Samples;Min_cycle;Max_cycle;Signal;HPM_P1;HPM_P2
2022/09/19 00:01:31;;;;;;;0.20;0.10;;;11.10;99.90;;;;;;5010777;28;20463;-74
2022/09/19 00:03:59;;;;;;;0.30;0.10;;;11.00;99.90;;;;;;5011560;28;20026;-74
2022/09/19 00:06:27;;;;;;;0.63;0.20;;;11.00;99.90;;;;;;5011500;28;20471;-74
2022/09/19 00:08:54;;;;;;;1.92;0.70;;;11.00;99.90;;;;;;5016104;28;20463;-74
2022/09/19 00:11:20;;;;;;;2.45;0.52;;;11.00;99.90;;;;;;5015055;28;20026;-74
2022/09/19 00:13:48;;;;;;;2.45;0.60;;;11.00;99.90;;;;;;5016077;28;20033;-74
2022/09/19 00:16:28;;;;;;;1.58;0.52;;;10.90;99.90;;;;;;5015007;28;20117;-74
2022/09/19 00:18:56;;;;;;;2.10;0.93;;;10.90;99.90;;;;;;5015096;28;20026;-74
2022/09/19 00:21:24;;;;;;;2.10;0.77;;;10.80;99.90;;;;;;5014934;28;20054;-74
2022/09/19 00:26:36;;;;;;;0.80;0.40;;;10.80;99.90;;;;;;5015522;28;20049;-74
2022/09/19 00:29:02;;;;;;;0.82;0.30;;;10.90;99.90;;;;;;5014738;28;20036;-73
2022/09/19 00:31:28;;;;;;;1.75;0.10;;;10.80;99.90;;;;;;5014178;28;20121;-74
2022/09/19 00:33:54;;;;;;;1.88;0.20;;;10.80;99.90;;;;;;5014395;28;20562;-73
2022/09/19 00:36:20;;;;;;;1.27;0.45;;;10.80;99.90;;;;;;5014582;28;20041;-73
2022/09/19 00:38:45;;;;;;;1.33;0.20;;;10.80;99.90;;;;;;5014026;28;20026;-73
2022/09/19 00:41:16;;;;;;;1.05;0.30;;;10.70;99.90;;;;;;5014575;28;20029;-73
2022/09/19 00:43:46;;;;;;;1.23;0.50;;;10.70;99.90;;;;;;5014026;28;20026;-74
2022/09/19 00:46:12;;;;;;;3.22;0.22;;;10.70;99.90;;;;;;5014413;28;20030;-73
2022/09/19 00:48:41;;;;;;;1.83;0.40;;;10.70;99.90;;;;;;5015109;28;20087;-73
2022/09/19 00:51:10;;;;;;;0.75;0.10;;;10.70;99.90;;;;;;5014246;28;20065;-74
2022/09/19 00:53:36;;;;;;;0.52;0.15;;;10.70;99.90;;;;;;5013763;28;20022;-74
2022/09/19 00:56:04;;;;;;;1.38;0.20;;;10.70;99.90;;;;;;5015093;28;20479;-73
2022/09/19 00:58:31;;;;;;;1.27;0.30;;;10.70;99.90;;;;;;5014915;28;20137;-74
2022/09/19 01:00:58;;;;;;;0.95;0.30;;;10.70;99.90;;;;;;5014072;28;20061;-74
2022/09/19 01:03:25;;;;;;;0.93;0.38;;;10.70;99.90;;;;;;5015423;28;20026;-74
2022/09/19 01:06:12;;;;;;;0.32;0.30;;;10.60;99.90;;;;;;5014113;28;20026;-74
2022/09/19 01:08:57;;;;;;;2.17;0.30;;;10.60;99.90;;;;;;5013530;28;20032;-73
2022/09/19 01:11:29;;;;;;;0.20;0.20;;;10.50;99.90;;;;;;5014005;28;20038;-74
2022/09/19 01:14:02;;;;;;;0.25;0.10;;;10.60;99.90;;;;;;5015216;28;20049;-74
2022/09/19 01:16:42;;;;;;;0.40;0.20;;;10.60;99.90;;;;;;5014761;28;20034;-74
2022/09/19 01:19:39;;;;;;;0.17;0.13;;;10.50;99.90;;;;;;5012416;28;20037;-73
2022/09/19 01:22:30;;;;;;;0.10;0.10;;;10.50;99.90;;;;;;5014002;28;20026;-73
2022/09/19 01:24:58;;;;;;;2.10;0.20;;;10.50;99.90;;;;;;5013869;28;20029;-74
2022/09/19 01:27:38;;;;;;;0.20;0.10;;;10.50;99.90;;;;;;5013671;28;20489;-73
2022/09/19 01:30:09;;;;;;;1.67;0.20;;;10.50;99.90;;;;;;5013675;28;20048;-73
2022/09/19 01:32:49;;;;;;;0.10;0.10;;;10.50;99.90;;;;;;5013033;28;20026;-74
2022/09/19 01:35:18;;;;;;;1.73;0.10;;;10.50;99.90;;;;;;5013038;28;20069;-74
2022/09/19 01:38:09;;;;;;;0.47;0.22;;;10.50;99.90;;;;;;5014060;28;20038;-73
2022/09/19 01:40:37;;;;;;;0.40;0.10;;;10.50;99.90;;;;;;5014235;28;20033;-74
2022/09/19 01:43:05;;;;;;;0.93;0.28;;;10.40;99.90;;;;;;5013334;28;20095;-73
2022/09/19 01:45:36;;;;;;;0.40;0.30;;;10.40;99.90;;;;;;5014050;28;20116;-74
2022/09/19 01:48:17;;;;;;;1.40;0.20;;;10.40;99.90;;;;;;5013321;28;20034;-74
2022/09/19 01:51:23;;;;;;;0.20;0.10;;;10.40;99.90;;;;;;5012728;28;20069;-74
2022/09/19 01:54:00;;;;;;;2.17;0.20;;;10.30;99.90;;;;;;4956281;28;20035;-74
2022/09/19 01:56:50;;;;;;;1.55;0.25;;;10.20;99.90;;;;;;5010370;28;20050;-74
2022/09/19 01:59:32;;;;;;;0.88;0.10;;;10.20;99.90;;;;;;5014109;28;20033;-74
2022/09/19 02:02:36;;;;;;;0.98;0.20;;;10.20;99.90;;;;;;5013257;28;20079;-74
2022/09/19 02:05:05;;;;;;;0.68;0.10;;;10.20;99.90;;;;;;5013153;28;20034;-73
2022/09/19 02:07:43;;;;;;;0.70;0.20;;;10.20;99.90;;;;;;5012423;28;20037;-74
2022/09/19 02:10:37;;;;;;;1.98;0.20;;;10.10;99.90;;;;;;5014165;28;20026;-73
2022/09/19 02:13:05;;;;;;;1.83;0.20;;;10.20;99.90;;;;;;5006512;28;20033;-73
2022/09/19 02:15:34;;;;;;;0.60;0.30;;;10.10;99.90;;;;;;5013463;28;20022;-74
2022/09/19 02:18:12;;;;;;;0.32;0.10;;;10.10;99.90;;;;;;5013866;28;20034;-73
2022/09/19 02:20:41;;;;;;;0.75;0.20;;;10.10;99.90;;;;;;5012265;28;20029;-74
2022/09/19 02:23:26;;;;;;;2.83;0.20;;;10.10;99.90;;;;;;5012650;28;20026;-73
2022/09/19 02:25:54;;;;;;;1.13;0.17;;;10.10;99.90;;;;;;5013796;28;20038;-74
2022/09/19 02:28:29;;;;;;;0.82;0.30;;;10.10;99.90;;;;;;5012477;28;20125;-73
2022/09/19 02:30:55;;;;;;;1.00;0.20;;;10.10;99.90;;;;;;5011926;28;20022;-74
2022/09/19 02:33:21;;;;;;;0.50;0.15;;;10.10;99.90;;;;;;5012120;28;20053;-73
2022/09/19 02:35:55;;;;;;;0.82;0.20;;;10.10;99.90;;;;;;5011509;28;20049;-74
2022/09/19 02:38:23;;;;;;;1.50;0.20;;;10.10;99.90;;;;;;5012463;28;20038;-73
2022/09/19 02:41:04;;;;;;;1.27;0.20;;;10.10;99.90;;;;;;5011751;28;20029;-74
2022/09/19 02:43:51;;;;;;;0.80;0.20;;;10.10;99.90;;;;;;5012390;28;20022;-74
2022/09/19 02:46:34;;;;;;;2.33;0.17;;;10.10;99.90;;;;;;5013491;28;20029;-74
2022/09/19 02:49:12;;;;;;;0.82;0.20;;;10.00;99.90;;;;;;5013523;28;20025;-74
2022/09/19 02:51:48;;;;;;;0.43;0.13;;;10.00;99.90;;;;;;5012998;28;20112;-74
2022/09/19 02:54:19;;;;;;;1.45;0.20;;;10.00;99.90;;;;;;5012258;28;20030;-74
2022/09/19 02:56:48;;;;;;;2.67;0.55;;;10.00;99.90;;;;;;5012819;28;20073;-74
2022/09/19 02:59:23;;;;;;;0.22;0.13;;;10.00;99.90;;;;;;5011982;28;20030;-73
2022/09/19 03:01:54;;;;;;;1.92;0.30;;;10.10;99.90;;;;;;5011579;28;20089;-74
2022/09/19 03:04:29;;;;;;;1.05;0.65;;;10.00;99.90;;;;;;5013302;28;20025;-74
2022/09/19 03:07:11;;;;;;;3.50;0.40;;;10.10;99.90;;;;;;5011433;28;20030;-74
2022/09/19 03:09:37;;;;;;;;;;;10.10;99.90;;;;;;5013068;28;20486;-74
2022/09/19 03:12:14;;;;;;;0.80;0.20;;;10.10;99.90;;;;;;5011878;28;19905;-73
2022/09/19 03:14:40;;;;;;;0.90;0.25;;;10.00;99.90;;;;;;5012646;28;20117;-74
2022/09/19 03:17:07;;;;;;;1.55;0.30;;;10.00;99.90;;;;;;5012955;28;20172;-73
2022/09/19 03:19:33;;;;;;;4.13;0.30;;;10.00;99.90;;;;;;5011353;28;20033;-77
2022/09/19 03:21:59;;;;;;;2.53;0.40;;;10.00;99.90;;;;;;5011668;28;20459;-74
2022/09/19 03:24:26;;;;;;;2.45;0.30;;;10.00;99.90;;;;;;5011578;28;20033;-74
2022/09/19 03:26:52;;;;;;;2.30;0.20;;;10.00;99.90;;;;;;5012449;28;20025;-73
2022/09/19 03:29:18;;;;;;;1.55;0.30;;;10.00;99.90;;;;;;5011685;28;20049;-73
2022/09/19 03:31:45;;;;;;;2.58;0.20;;;10.00;99.90;;;;;;5012406;28;20066;-74
2022/09/19 03:34:12;;;;;;;1.02;0.30;;;10.00;99.90;;;;;;5011248;28;20065;-74
2022/09/19 03:36:40;;;;;;;2.45;0.45;;;10.00;99.90;;;;;;5010986;28;20382;-74
2022/09/19 03:39:06;;;;;;;0.70;0.20;;;10.00;99.90;;;;;;5011900;28;20427;-73
2022/09/19 03:41:32;;;;;;;2.40;0.28;;;10.00;99.90;;;;;;5012656;28;20505;-74
2022/09/19 03:44:00;;;;;;;1.85;0.20;;;10.00;99.90;;;;;;5014978;28;20022;-74
2022/09/19 03:46:26;;;;;;;1.33;0.30;;;10.00;99.90;;;;;;5015221;28;20026;-73
2022/09/19 03:48:52;;;;;;;1.10;0.30;;;10.00;99.90;;;;;;5016321;28;20036;-74
2022/09/19 03:51:18;;;;;;;2.13;0.25;;;9.90;99.90;;;;;;5015555;28;20117;-74
2022/09/19 03:53:45;;;;;;;1.42;0.20;;;9.90;99.90;;;;;;5014940;28;20032;-74
2022/09/19 03:56:12;;;;;;;1.17;0.20;;;9.90;99.90;;;;;;5015239;28;20034;-74
2022/09/19 03:58:39;;;;;;;1.63;0.40;;;9.90;99.90;;;;;;5015969;28;20105;-74
2022/09/19 04:01:06;;;;;;;3.22;0.52;;;9.90;99.90;;;;;;5015318;28;20475;-74
2022/09/19 04:03:33;;;;;;;5.82;0.80;;;9.90;99.90;;;;;;5016519;28;20372;-73
2022/09/19 04:06:00;;;;;;;3.88;0.75;;;9.90;99.90;;;;;;5014598;28;20041;-74
2022/09/19 04:08:26;;;;;;;0.80;0.50;;;9.90;99.90;;;;;;5015238;28;20395;-73
2022/09/19 04:10:52;;;;;;;0.85;0.45;;;9.80;99.90;;;;;;5016044;28;20044;-74
2022/09/19 04:13:20;;;;;;;2.42;0.60;;;9.80;99.90;;;;;;5016422;28;20018;-74
2022/09/19 04:15:46;;;;;;;1.65;0.57;;;9.70;99.90;;;;;;5014447;28;20029;-74
2022/09/19 04:18:11;;;;;;;2.50;0.52;;;9.60;99.90;;;;;;5015034;28;20045;-74
2022/09/19 04:20:38;;;;;;;2.47;0.60;;;9.60;99.90;;;;;;5015244;28;20034;-74
2022/09/19 04:23:03;;;;;;;3.63;0.50;;;9.60;99.90;;;;;;5016087;28;20053;-74
2022/09/19 04:25:35;;;;;;;3.75;0.40;;;9.60;99.90;;;;;;5016256;28;20084;-74
2022/09/19 04:28:06;;;;;;;5.07;0.50;;;9.60;99.90;;;;;;5014361;28;20112;-73
2022/09/19 04:30:36;;;;;;;1.55;0.35;;;9.50;99.90;;;;;;5014821;28;20530;-73
2022/09/19 04:33:03;;;;;;;0.90;0.50;;;9.50;99.90;;;;;;5014532;28;20036;-74
2022/09/19 04:35:36;;;;;;;2.03;0.52;;;9.50;99.90;;;;;;5014684;28;20053;-74
2022/09/19 04:38:11;;;;;;;1.58;0.73;;;9.50;99.90;;;;;;5015919;28;20034;-74
2022/09/19 04:40:42;;;;;;;2.38;0.57;;;9.50;99.90;;;;;;5015846;28;20029;-74
2022/09/19 04:43:09;;;;;;;2.17;0.57;;;9.60;99.90;;;;;;5014594;28;20543;-74
2022/09/19 04:45:36;;;;;;;2.97;0.88;;;9.50;99.90;;;;;;5015710;28;20058;-73
2022/09/19 04:48:04;;;;;;;1.65;0.45;;;9.50;99.90;;;;;;5015092;28;20496;-74
2022/09/19 04:50:30;;;;;;;2.47;0.60;;;9.50;99.90;;;;;;5014486;28;20058;-73
2022/09/19 04:52:57;;;;;;;2.88;0.40;;;9.50;99.90;;;;;;5013556;28;20054;-74
2022/09/19 04:55:25;;;;;;;1.45;0.50;;;9.50;99.90;;;;;;5013868;28;20026;-74
2022/09/19 04:57:51;;;;;;;2.05;0.95;;;9.50;99.90;;;;;;5014867;28;20030;-74
2022/09/19 05:00:37;;;;;;;2.83;0.70;;;9.50;99.90;;;;;;5015638;28;20482;-74
2022/09/19 05:03:27;;;;;;;1.90;1.10;;;9.50;99.90;;;;;;5013640;28;20030;-74
2022/09/19 05:05:53;;;;;;;1.25;0.77;;;9.50;99.90;;;;;;5013620;28;20030;-74
2022/09/19 05:08:25;;;;;;;4.25;0.75;;;9.50;99.90;;;;;;5013990;28;20025;-74
2022/09/19 05:10:58;;;;;;;;;;;9.60;99.90;;;;;;5013657;28;20022;-74
2022/09/19 05:13:28;;;;;;;2.47;0.63;;;9.50;99.90;;;;;;5015282;28;19940;-74
2022/09/19 05:15:54;;;;;;;3.65;0.70;;;9.60;99.90;;;;;;5014391;28;20029;-74
2022/09/19 05:18:21;;;;;;;0.80;0.68;;;9.60;99.90;;;;;;5013796;28;20037;-73
2022/09/19 05:20:48;;;;;;;0.98;0.68;;;9.60;99.90;;;;;;5013389;28;20072;-74
2022/09/19 05:23:14;;;;;;;3.22;0.80;;;9.60;99.90;;;;;;5015258;28;20458;-74
2022/09/19 05:25:40;;;;;;;8.20;1.27;;;9.60;99.90;;;;;;5013406;28;20479;-73
2022/09/19 05:28:08;;;;;;;1.98;0.70;;;9.60;99.90;;;;;;5013625;28;20041;-74
2022/09/19 05:30:55;;;;;;;1.88;0.60;;;9.70;99.90;;;;;;5013612;28;20029;-74
2022/09/19 05:33:26;;;;;;;3.25;0.70;;;9.70;99.90;;;;;;5014449;28;20495;-74
2022/09/19 05:36:00;;;;;;;2.70;0.65;;;9.70;99.90;;;;;;5013081;28;20060;-73
2022/09/19 05:38:30;;;;;;;1.95;0.80;;;9.70;99.90;;;;;;5014791;28;20102;-73
2022/09/19 05:40:57;;;;;;;2.33;1.00;;;9.70;99.90;;;;;;5013005;28;20068;-74
2022/09/19 05:43:24;;;;;;;2.15;0.88;;;9.80;99.90;;;;;;5013569;28;20022;-74
2022/09/19 05:45:50;;;;;;;4.60;0.75;;;9.80;99.90;;;;;;5012787;28;20105;-74
2022/09/19 05:48:16;;;;;;;3.88;0.90;;;9.80;99.90;;;;;;5013310;28;20060;-74
2022/09/19 05:50:46;;;;;;;5.18;1.10;;;9.80;99.90;;;;;;5014262;28;20058;-77
2022/09/19 05:55:56;;;;;;;4.80;0.85;;;9.90;99.90;;;;;;5014441;28;20104;-74
2022/09/19 05:58:24;;;;;;;4.22;0.73;;;10.00;99.90;;;;;;5012993;28;20483;-74
2022/09/19 06:00:50;;;;;;;6.05;0.80;;;10.10;99.90;;;;;;5013837;28;20022;-74
2022/09/19 06:03:16;;;;;;;3.47;0.70;;;10.10;99.90;;;;;;5013010;28;20494;-74
2022/09/19 06:05:45;;;;;;;3.85;0.73;;;10.10;99.90;;;;;;5012387;28;20026;-73
2022/09/19 06:08:11;;;;;;;4.45;1.00;;;10.20;99.90;;;;;;5012879;28;20081;-74
2022/09/19 06:10:39;;;;;;;3.92;0.70;;;10.20;99.90;;;;;;5012986;28;20062;-74
2022/09/19 06:13:06;;;;;;;3.35;0.68;;;10.30;99.90;;;;;;5012288;28;20033;-74
2022/09/19 06:15:33;;;;;;;5.07;0.80;;;10.30;99.90;;;;;;5014322;28;20037;-73
2022/09/19 06:17:59;;;;;;;2.75;0.95;;;10.30;99.90;;;;;;5012082;28;20033;-74
2022/09/19 06:20:25;;;;;;;5.20;0.80;;;10.40;99.90;;;;;;5012342;28;20037;-74
2022/09/19 06:23:02;;;;;;;3.45;0.60;;;10.40;99.90;;;;;;5012097;28;20026;-74
2022/09/19 06:25:28;;;;;;;3.30;0.65;;;10.40;99.90;;;;;;5012801;28;20426;-74
2022/09/19 06:28:00;;;;;;;1.67;0.73;;;10.40;99.90;;;;;;5013149;28;20041;-74
2022/09/19 06:30:27;;;;;;;3.50;0.97;;;10.50;99.90;;;;;;5012608;28;20026;-74
2022/09/19 06:32:53;;;;;;;4.22;1.00;;;10.50;99.90;;;;;;5011928;28;20679;-74
2022/09/19 06:35:21;;;;;;;2.90;0.90;;;10.50;99.90;;;;;;5012380;28;20132;-74
2022/09/19 06:37:47;;;;;;;2.47;0.68;;;10.60;99.90;;;;;;5011773;28;20123;-74
2022/09/19 06:40:14;;;;;;;4.50;0.82;;;10.60;99.90;;;;;;5012330;28;20057;-74
2022/09/19 06:42:40;;;;;;;6.03;0.80;;;10.60;99.90;;;;;;5012292;28;20022;-74
2022/09/19 06:45:07;;;;;;;3.80;0.90;;;10.70;99.90;;;;;;5011708;28;20092;-74
2022/09/19 06:47:37;;;;;;;2.30;0.65;;;10.80;99.90;;;;;;5012237;28;20038;-73
2022/09/19 06:50:06;;;;;;;5.47;0.70;;;10.80;99.90;;;;;;5011406;28;20034;-74
2022/09/19 06:52:31;;;;;;;6.90;0.80;;;10.80;99.90;;;;;;5013174;28;20026;-74
2022/09/19 06:54:58;;;;;;;4.90;1.10;;;10.80;99.90;;;;;;5011260;28;20493;-73
2022/09/19 06:57:24;;;;;;;2.45;0.68;;;10.90;99.90;;;;;;5011983;28;20038;-74
2022/09/19 06:59:49;;;;;;;3.83;0.90;;;10.90;99.90;;;;;;5011394;28;20036;-74
2022/09/19 07:02:16;;;;;;;2.58;0.95;;;10.90;99.90;;;;;;5013186;28;20022;-74
2022/09/19 07:04:41;;;;;;;2.65;1.13;;;10.90;99.90;;;;;;5011960;28;20033;-74
2022/09/19 07:07:07;;;;;;;7.07;1.05;;;11.00;99.90;;;;;;5012359;28;20391;-75
2022/09/19 07:09:32;;;;;;;2.33;0.73;;;11.00;99.90;;;;;;5011982;28;20065;-74
2022/09/19 07:11:59;;;;;;;2.50;0.65;;;11.00;99.90;;;;;;5011268;28;20113;-74
2022/09/19 07:14:25;;;;;;;3.22;0.70;;;11.10;99.90;;;;;;5011891;28;20030;-74
2022/09/19 07:16:51;;;;;;;3.75;1.00;;;11.10;99.90;;;;;;5011533;28;20379;-73
2022/09/19 07:19:17;;;;;;;3.83;0.80;;;11.10;99.90;;;;;;5011758;28;20037;-74
2022/09/19 07:21:43;;;;;;;2.10;1.27;;;11.20;99.90;;;;;;5011759;28;20091;-73
2022/09/19 07:24:08;;;;;;;6.72;1.02;;;11.20;99.90;;;;;;5011073;28;20471;-74
2022/09/19 07:26:34;;;;;;;5.85;1.45;;;11.30;99.90;;;;;;5011921;28;20038;-74
2022/09/19 07:29:00;;;;;;;5.25;1.38;;;11.30;99.90;;;;;;5011319;28;20379;-74
2022/09/19 07:31:29;;;;;;;6.28;1.40;;;11.30;99.90;;;;;;5011730;28;20391;-73
2022/09/19 07:33:54;;;;;;;5.00;0.95;;;11.30;99.90;;;;;;5012385;28;20046;-73
2022/09/19 07:36:21;;;;;;;9.13;2.58;;;11.40;99.90;;;;;;5011490;28;20065;-73
2022/09/19 07:38:51;;;;;;;4.30;1.15;;;11.40;99.90;;;;;;5012795;28;20017;-73
2022/09/19 07:41:17;;;;;;;7.07;1.80;;;11.40;99.90;;;;;;5011521;28;20120;-74
2022/09/19 07:43:44;;;;;;;7.18;1.20;;;11.50;99.90;;;;;;5011326;28;20034;-73
2022/09/19 07:46:14;;;;;;;3.58;1.30;;;11.60;99.90;;;;;;5010845;28;20030;-73
2022/09/19 07:48:41;;;;;;;3.33;1.02;;;11.60;99.90;;;;;;5011486;28;20073;-73
2022/09/19 07:51:08;;;;;;;7.85;1.25;;;11.60;99.90;;;;;;5010924;28;20121;-73
2022/09/19 07:53:33;;;;;;;4.15;0.90;;;11.60;99.90;;;;;;5011624;28;20045;-73
2022/09/19 07:56:00;;;;;;;3.55;1.08;;;11.60;99.90;;;;;;5010878;28;20033;-74
2022/09/19 07:58:26;;;;;;;1.00;0.50;;;11.60;99.90;;;;;;5011192;28;20500;-72
2022/09/19 08:00:53;;;;;;;2.63;1.13;;;11.80;99.90;;;;;;5012063;28;20026;-73
2022/09/19 08:03:20;;;;;;;7.13;1.13;;;11.80;99.90;;;;;;5011453;28;20482;-73
2022/09/19 08:05:48;;;;;;;5.15;1.10;;;11.80;99.90;;;;;;5011338;28;20034;-74
2022/09/19 08:08:15;;;;;;;4.38;0.80;;;11.80;99.90;;;;;;5010759;28;20033;-75
2022/09/19 08:10:42;;;;;;;8.05;1.00;;;11.90;99.90;;;;;;5011358;28;20427;-74
2022/09/19 08:13:09;;;;;;;3.08;0.80;;;11.90;99.90;;;;;;5010703;28;20104;-74
2022/09/19 08:15:37;;;;;;;3.78;0.80;;;12.00;99.90;;;;;;5011271;28;20403;-74
2022/09/19 08:18:05;;;;;;;9.65;1.00;;;12.00;99.90;;;;;;5010631;28;20037;-75
2022/09/19 08:20:33;;;;;;;3.47;0.80;;;12.00;99.90;;;;;;5012308;28;20022;-75
2022/09/19 08:23:01;;;;;;;2.45;0.95;;;12.10;99.90;;;;;;5011724;28;20026;-75
2022/09/19 08:25:32;;;;;;;2.88;0.80;;;12.10;99.90;;;;;;5012767;28;20049;-75
2022/09/19 08:27:57;;;;;;;4.80;1.15;;;12.10;99.90;;;;;;5012501;28;20026;-75
2022/09/19 08:30:25;;;;;;;4.80;0.80;;;12.10;99.90;;;;;;5014814;28;20509;-75
2022/09/19 08:32:51;;;;;;;4.63;0.73;;;12.20;99.90;;;;;;5014760;28;20124;-74
2022/09/19 08:35:18;;;;;;;5.68;0.90;;;12.30;99.90;;;;;;5016271;28;20053;-74
2022/09/19 08:37:44;;;;;;;3.22;0.77;;;12.40;99.90;;;;;;5014659;28;20545;-75
2022/09/19 08:40:25;;;;;;;4.72;0.80;;;12.40;99.90;;;;;;5014130;28;20026;-75
2022/09/19 08:43:24;;;;;;;4.18;0.75;;;12.50;99.90;;;;;;5014743;28;20132;-74
2022/09/19 08:46:22;;;;;;;6.22;1.27;;;12.60;99.90;;;;;;5015945;28;20022;-75
2022/09/19 08:49:04;;;;;;;2.65;0.80;;;12.60;99.90;;;;;;5014603;28;20033;-74
2022/09/19 08:51:34;;;;;;;2.05;0.73;;;12.60;99.90;;;;;;5015477;28;20037;-75
2022/09/19 08:54:24;;;;;;;5.88;0.70;;;12.80;99.90;;;;;;5013647;28;20034;-74
2022/09/19 08:56:50;;;;;;;7.82;0.90;;;12.80;99.90;;;;;;5013990;28;20495;-75
2022/09/19 08:59:24;;;;;;;4.43;0.73;;;12.80;99.90;;;;;;5013649;28;20041;-75
2022/09/19 09:01:57;;;;;;;2.90;0.80;;;12.80;99.90;;;;;;5014214;28;20026;-74
2022/09/19 09:04:30;;;;;;;6.93;1.10;;;12.80;99.90;;;;;;5014204;28;20049;-75
2022/09/19 09:07:08;;;;;;;3.08;0.80;;;12.80;99.90;;;;;;5014932;28;20179;-75
2022/09/19 09:09:54;;;;;;;6.80;1.02;;;12.80;99.90;;;;;;5014401;28;20029;-75
2022/09/19 09:12:32;;;;;;;5.30;1.55;;;12.90;99.90;;;;;;4993617;28;20030;-75
2022/09/19 09:15:31;;;;;;;6.30;1.00;;;13.00;99.90;;;;;;5013547;28;20111;-75
2022/09/19 09:18:20;;;;;;;4.22;1.10;;;13.00;99.90;;;;;;5013389;28;20088;-75
2022/09/19 09:20:58;;;;;;;5.93;0.80;;;13.00;99.90;;;;;;5013776;28;20390;-75
2022/09/19 09:23:36;;;;;;;4.20;0.85;;;13.00;99.90;;;;;;5014777;28;20026;-75
2022/09/19 09:26:13;;;;;;;3.25;0.90;;;13.00;99.90;;;;;;5012780;28;20085;-75
2022/09/19 09:29:03;;;;;;;6.15;0.90;;;13.00;99.90;;;;;;5015124;28;20061;-75
2022/09/19 09:31:34;;;;;;;4.93;1.05;;;13.00;99.90;;;;;;5013706;28;20065;-75
2022/09/19 09:34:06;;;;;;;5.50;0.97;;;13.10;99.90;;;;;;5012935;28;20483;-75
2022/09/19 09:36:55;;;;;;;5.40;1.33;;;13.10;99.90;;;;;;5013775;28;20029;-75
2022/09/19 09:39:59;;;;;;;5.03;0.80;;;13.20;99.90;;;;;;5013813;28;20463;-75
2022/09/19 09:42:37;;;;;;;4.40;0.98;;;13.30;99.90;;;;;;5013684;28;20022;-74
2022/09/19 09:45:39;;;;;;;4.47;0.88;;;13.40;99.90;;;;;;5014114;28;20475;-74
2022/09/19 09:48:26;;;;;;;5.15;1.55;;;13.40;99.90;;;;;;5006847;28;20041;-75
2022/09/19 09:51:04;;;;;;;5.70;0.90;;;13.40;99.90;;;;;;5013436;28;20125;-75
2022/09/19 09:54:06;;;;;;;7.53;1.30;;;13.40;99.90;;;;;;5014536;28;20053;-75
2022/09/19 09:56:50;;;;;;;3.92;1.10;;;13.50;99.90;;;;;;5013163;28;20092;-75
2022/09/19 10:05:59;;;;;;;9.15;1.10;;;13.70;99.90;;;;;;5014433;28;20037;-75
2022/09/19 10:08:34;;;;;;;4.25;0.70;;;13.80;99.90;;;;;;5013006;28;20029;-75
2022/09/19 10:11:12;;;;;;;4.28;0.80;;;13.70;99.90;;;;;;5012095;28;20060;-75
2022/09/19 10:13:45;;;;;;;2.97;0.73;;;13.70;99.90;;;;;;5012941;28;20076;-75
2022/09/19 10:16:19;;;;;;;5.22;0.75;;;13.70;99.90;;;;;;5013675;28;20030;-76
2022/09/19 10:18:57;;;;;;;8.55;1.23;;;13.80;99.90;;;;;;5012957;28;20034;-75
2022/09/19 10:21:23;;;;;;;5.53;0.90;;;13.90;99.90;;;;;;5012724;28;20471;-75
2022/09/19 10:23:49;;;;;;;4.40;0.82;;;14.00;99.90;;;;;;5012622;28;20382;-75
2022/09/19 10:26:19;;;;;;;2.63;0.93;;;14.10;99.90;;;;;;5012104;28;20038;-75
2022/09/19 10:28:59;;;;;;;4.93;0.85;;;14.30;99.90;;;;;;5013927;28;20030;-75
2022/09/19 10:31:34;;;;;;;5.40;0.90;;;14.40;99.90;;;;;;5012727;28;20026;-75
2022/09/19 10:34:04;;;;;;;6.75;0.80;;;14.40;99.90;;;;;;5012981;28;20053;-75
2022/09/19 10:36:33;;;;;;;4.45;0.82;;;14.50;99.90;;;;;;5013666;28;20534;-75
2022/09/19 10:39:09;;;;;;;3.20;0.85;;;14.50;99.90;;;;;;5012030;28;20029;-80
2022/09/19 10:41:35;;;;;;;6.10;0.80;;;14.60;99.90;;;;;;5012601;28;20030;-75
2022/09/19 10:44:08;;;;;;;5.20;0.80;;;14.60;99.90;;;;;;5013124;28;20438;-76
2022/09/19 10:46:42;;;;;;;5.10;1.20;;;14.70;99.90;;;;;;5012379;28;20574;-75
2022/09/19 10:49:20;;;;;;;4.88;1.00;;;14.70;99.90;;;;;;5012810;28;20072;-76
2022/09/19 10:51:48;;;;;;;3.10;1.08;;;14.80;99.90;;;;;;5012260;28;20467;-75
2022/09/19 10:54:36;;;;;;;4.18;0.73;;;14.90;99.90;;;;;;5011597;28;20061;-75
2022/09/19 10:57:04;;;;;;;2.88;0.82;;;14.90;99.90;;;;;;5012866;28;20056;-75
2022/09/19 10:59:39;;;;;;;9.52;2.10;;;14.90;99.90;;;;;;5012161;28;20364;-75
2022/09/19 11:02:53;;;;;;;3.83;0.82;;;14.90;99.90;;;;;;5011357;28;20030;-75
2022/09/19 11:05:25;;;;;;;4.63;1.05;;;14.90;99.90;;;;;;4985273;28;20037;-75
2022/09/19 11:07:54;;;;;;;8.02;1.40;;;14.90;99.90;;;;;;5011719;28;20040;-75
2022/09/19 11:10:33;;;;;;;2.97;0.77;;;14.90;99.90;;;;;;5011488;28;20034;-75
2022/09/19 11:13:09;;;;;;;7.40;0.80;;;14.90;99.90;;;;;;5013179;28;20521;-75
2022/09/19 11:15:51;;;;;;;5.03;0.93;;;15.00;99.90;;;;;;5013206;28;20040;-75
2022/09/19 11:18:57;;;;;;;6.20;0.93;;;15.10;99.90;;;;;;5011264;28;20484;-75
2022/09/19 11:22:22;;;;;;;4.00;1.05;;;15.20;99.90;;;;;;5011361;28;20028;-75
2022/09/19 11:25:18;;;;;;;3.30;0.73;;;15.20;99.90;;;;;;4990036;28;20054;-74
2022/09/19 11:28:10;;;;;;;2.30;0.70;;;15.40;99.90;;;;;;5011949;28;20382;-75
2022/09/19 11:30:58;;;;;;;8.65;1.05;;;15.70;99.90;;;;;;5013146;28;20022;-75
2022/09/19 11:33:38;;;;;;;3.78;0.75;;;15.90;99.90;;;;;;5010874;28;20057;-75
2022/09/19 11:37:01;;;;;;;7.85;1.02;;;16.20;99.90;;;;;;5010860;28;20030;-76
2022/09/19 11:40:04;;;;;;;3.03;0.70;;;16.30;99.90;;;;;;4970969;28;20632;-74
2022/09/19 11:43:04;;;;;;;3.65;0.50;;;16.40;99.90;;;;;;4955441;28;20536;-75
2022/09/19 11:46:03;;;;;;;2.08;0.40;;;16.20;99.90;;;;;;4971484;28;20034;-75
2022/09/19 11:48:54;;;;;;;4.30;0.60;;;16.00;99.90;;;;;;4955412;28;20562;-75
2022/09/19 11:51:49;;;;;;;3.80;0.68;;;16.00;99.90;;;;;;4970887;28;20452;-75
2022/09/19 11:54:24;;;;;;;4.60;0.75;;;16.10;99.90;;;;;;4954515;28;20449;-75
2022/09/19 11:57:22;;;;;;;2.47;0.50;;;16.10;99.90;;;;;;4955169;28;20058;-75
2022/09/19 12:00:16;;;;;;;4.00;0.70;;;16.40;99.90;;;;;;4971497;28;20054;-75
2022/09/19 12:03:06;;;;;;;1.92;0.90;;;16.70;99.90;;;;;;4972644;28;20042;-75
2022/09/19 12:06:03;;;;;;;4.30;1.02;;;17.00;99.90;;;;;;4959085;28;20123;-75
2022/09/19 12:08:43;;;;;;;4.90;0.85;;;17.00;99.90;;;;;;4974766;28;20114;-75
2022/09/19 12:11:20;;;;;;;6.35;0.80;;;17.10;99.90;;;;;;5016126;28;20038;-76
2022/09/19 12:13:53;;;;;;;2.35;0.75;;;17.00;99.90;;;;;;5014923;28;20033;-75
2022/09/19 12:16:44;;;;;;;2.58;0.70;;;17.20;99.90;;;;;;5015975;28;20486;-73
2022/09/19 12:19:23;;;;;;;3.03;0.90;;;17.10;99.90;;;;;;5014140;28;20533;-74
2022/09/19 12:21:53;;;;;;;5.22;0.90;;;17.20;99.90;;;;;;5016369;28;20113;-73
2022/09/19 12:27:19;;;;;;;2.88;0.77;;;17.50;99.90;;;;;;5015723;28;20104;-74
2022/09/19 12:30:05;;;;;;;4.60;0.90;;;17.50;99.90;;;;;;5014997;28;20026;-73
2022/09/19 12:32:51;;;;;;;2.38;0.65;;;17.60;99.90;;;;;;5016248;28;20060;-73
2022/09/19 12:35:20;;;;;;;2.83;0.68;;;17.40;98.60;;;;;;5015584;28;20046;-74
2022/09/19 12:38:16;;;;;;;2.72;0.80;;;17.00;99.60;;;;;;5015643;28;20509;-73
2022/09/19 12:40:58;;;;;;;3.72;0.77;;;17.10;99.30;;;;;;5014381;28;20110;-74
2022/09/19 12:43:46;;;;;;;3.40;0.80;;;17.50;99.00;;;;;;5015367;28;20030;-73
2022/09/19 12:46:35;;;;;;;7.70;1.00;;;17.80;98.70;;;;;;5014067;28;20120;-74
2022/09/19 12:49:10;;;;;;;2.92;0.98;;;18.30;97.30;;;;;;5015734;28;20422;-74
2022/09/19 12:52:06;;;;;;;2.17;0.70;;;18.40;96.90;;;;;;5015848;28;20030;-73
2022/09/19 12:54:45;;;;;;;5.20;0.90;;;18.90;97.50;;;;;;5011908;28;20495;-73
2022/09/19 12:57:24;;;;;;;2.28;0.60;;;18.90;95.40;;;;;;5013935;28;20059;-73
2022/09/19 12:59:54;;;;;;;4.75;0.60;;;18.90;95.80;;;;;;5014426;28;20479;-73
2022/09/19 13:02:23;;;;;;;2.72;0.40;;;19.40;94.90;;;;;;5015024;28;20033;-73
2022/09/19 13:05:10;;;;;;;2.08;0.32;;;20.30;92.90;;;;;;5014401;28;20037;-73
2022/09/19 13:07:47;;;;;;;3.10;0.50;;;19.80;92.50;;;;;;5014319;28;20486;-73
2022/09/19 13:10:37;;;;;;;1.70;0.40;;;19.00;92.50;;;;;;5013647;28;20045;-73
2022/09/19 13:13:39;;;;;;;2.47;0.50;;;18.50;93.60;;;;;;5013973;28;20116;-73
2022/09/19 13:16:11;;;;;;;3.88;0.50;;;18.70;94.00;;;;;;5015359;28;20080;-73
2022/09/19 13:24:18;;;;;;;2.50;0.90;;;19.90;91.10;;;;;;5014328;28;20044;-73
2022/09/19 13:26:53;;;;;;;4.30;1.27;;;20.80;90.20;;;;;;5013831;28;20040;-73
2022/09/19 13:29:28;;;;;;;2.22;0.85;;;21.40;86.00;;;;;;5014614;28;20022;-73
2022/09/19 13:31:56;;;;;;;1.35;0.38;;;22.10;82.90;;;;;;5013925;28;20387;-74
2022/09/19 13:35:00;;;;;;;4.10;0.77;;;22.50;80.50;;;;;;5012841;28;20045;-75
2022/09/19 13:37:28;;;;;;;1.58;0.47;;;22.80;77.00;;;;;;5013226;28;20092;-74
2022/09/19 13:40:14;;;;;;;2.70;0.50;;;22.50;75.70;;;;;;5013529;28;20030;-74
2022/09/19 13:42:43;;;;;;;1.63;0.35;;;22.00;77.60;;;;;;5013794;28;20036;-73
2022/09/19 13:45:17;;;;;;;1.77;0.40;;;21.60;77.40;;;;;;5015027;28;20057;-73